Time;durP1;ratioP1;P1;durP2;ratioP2;P2;SDS_P1;SDS_P2;PMS_P1;PMS_P2;Temp;Humidity;BMP_temperature;BMP_pressure;BME280_temperature;BME280_humidity;BME280_pressure;Samples;Min_cycle;Max_cycle;Signal;HPM_P1;HPM_P2
2022/04/11 00:01:49;;;;;;;;;1.00;1.00;;;;;22.29;52.23;101215.56;5056334;28;45549;-63
2022/04/11 00:04:15;;;;;;;;;2.67;1.33;;;;;22.29;52.31;101212.00;5055688;28;46650;-63
2022/04/11 00:06:40;;;;;;;;;1.33;1.33;;;;;22.29;52.86;101218.25;5056262;28;45374;-62
2022/04/11 00:09:05;;;;;;;;;2.00;1.00;;;;;22.29;52.44;101210.19;5056537;28;45412;-63
2022/04/11 00:11:31;;;;;;;;;2.00;2.00;;;;;22.27;52.74;101208.47;5056520;28;45613;-63
2022/04/11 00:13:56;;;;;;;;;4.00;1.00;;;;;22.27;52.81;101212.06;5056189;28;46458;-62
2022/04/11 00:16:21;;;;;;;;;2.00;2.00;;;;;22.28;52.56;101212.94;5056174;28;52490;-62
2022/04/11 00:18:47;;;;;;;;;1.00;1.00;;;;;22.29;52.49;101209.31;5056256;28;45635;-62
2022/04/11 00:21:12;;;;;;;;;3.00;1.33;;;;;22.26;52.63;101210.25;5056738;28;45340;-62
2022/04/11 00:23:38;;;;;;;;;2.00;2.00;;;;;22.29;52.82;101209.31;5050324;28;46728;-62
2022/04/11 00:26:03;;;;;;;;;1.00;1.00;;;;;22.26;52.73;101196.81;5036384;28;45172;-62
2022/04/11 00:28:28;;;;;;;;;2.00;2.00;;;;;22.25;52.42;101187.00;5036307;28;45202;-63
2022/04/11 00:30:54;;;;;;;;;0.33;0.33;;;;;22.27;52.57;101193.22;5041709;28;45262;-62
2022/04/11 00:33:19;;;;;;;;;1.00;1.00;;;;;22.27;52.66;101184.28;5033221;28;45468;-62
2022/04/11 00:35:46;;;;;;;;;1.33;0.00;;;;;22.26;52.73;101171.72;5035768;28;50282;-62
2022/04/11 00:38:11;;;;;;;;;1.00;1.00;;;;;22.27;52.81;101170.81;5019352;28;45176;-62
2022/04/11 00:40:37;;;;;;;;;2.00;2.00;;;;;22.28;52.94;101164.50;5039847;28;45304;-63
2022/04/11 00:43:02;;;;;;;;;2.00;2.00;;;;;22.27;52.59;101155.56;5037186;28;47332;-63
2022/04/11 00:45:28;;;;;;;;;1.00;1.00;;;;;22.29;52.85;101155.50;5034853;28;45337;-62
2022/04/11 00:47:53;;;;;;;;;3.67;1.00;;;;;22.26;52.58;101145.69;5053398;28;45530;-63
2022/04/11 00:50:18;;;;;;;;;2.00;1.00;;;;;22.26;52.48;101152.91;5050364;28;45346;-62
2022/04/11 00:52:47;;;;;;;;;1.33;0.33;;;;;22.26;52.02;101144.81;5017721;28;45295;-62
2022/04/11 00:55:13;;;;;;;;;1.00;1.00;;;;;22.27;52.08;101150.19;5028937;28;45177;-63
2022/04/11 00:57:39;;;;;;;;;1.00;1.00;;;;;22.29;52.66;101139.34;5041302;28;45443;-62
2022/04/11 01:00:06;;;;;;;;;1.00;1.00;;;;;22.29;52.58;101139.34;5047853;28;45443;-62
2022/04/11 01:02:32;;;;;;;;;2.00;1.00;;;;;22.29;52.27;101140.22;5039241;28;45714;-62
2022/04/11 01:04:57;;;;;;;;;2.00;1.00;;;;;22.27;52.25;101125.97;5050745;28;45409;-62
2022/04/11 01:07:23;;;;;;;;;1.33;1.33;;;;;22.28;52.18;101116.09;5059624;28;45472;-62
2022/04/11 01:09:48;;;;;;;;;1.00;1.00;;;;;22.31;52.17;101115.97;5048386;28;45589;-62
2022/04/11 01:12:15;;;;;;;;;0.67;0.67;;;;;22.31;51.83;101115.97;5038951;28;46806;-63
2022/04/11 01:14:42;;;;;;;;;1.00;1.00;;;;;22.31;52.02;101107.88;5021350;28;45422;-62
2022/04/11 01:17:08;;;;;;;;;2.00;2.00;;;;;22.29;52.58;101102.56;5045352;28;45524;-62
2022/04/11 01:19:34;;;;;;;;;1.00;1.00;;;;;22.29;52.13;101113.34;5059292;28;45170;-62
2022/04/11 01:21:59;;;;;;;;;2.00;0.00;;;;;22.30;52.29;101104.31;5058844;28;46571;-63
2022/04/11 01:24:25;;;;;;;;;1.33;1.33;;;;;22.29;52.36;101099.00;5047712;28;48973;-63
2022/04/11 01:26:50;;;;;;;;;1.67;1.67;;;;;22.31;52.54;101094.44;5020883;28;45372;-62
2022/04/11 01:29:17;;;;;;;;;1.00;1.00;;;;;22.31;52.14;101092.63;5038904;28;45602;-63
2022/04/11 01:31:43;;;;;;;;;1.00;1.00;;;;;22.31;52.12;101089.06;5050558;28;45728;-62
2022/04/11 01:34:08;;;;;;;;;1.00;1.00;;;;;22.31;52.23;101081.00;5058747;28;45558;-62
2022/04/11 01:36:34;;;;;;;;;1.00;1.00;;;;;22.31;51.94;101086.38;5053665;28;45284;-62
2022/04/11 01:38:59;;;;;;;;;1.00;1.00;;;;;22.29;52.21;101081.03;5050819;28;45479;-61
2022/04/11 01:41:25;;;;;;;;;0.00;0.00;;;;;22.31;52.40;101072.91;5053607;28;57733;-62
2022/04/11 01:43:50;;;;;;;;;1.00;1.00;;;;;22.31;52.38;101073.78;5037818;28;58302;-62
2022/04/11 01:46:15;;;;;;;;;1.00;1.00;;;;;22.29;51.94;101070.28;5047410;28;46720;-62
2022/04/11 01:48:41;;;;;;;;;1.00;1.00;;;;;22.30;52.01;101069.34;5058428;28;45435;-62
2022/04/11 01:51:06;;;;;;;;;0.00;0.00;;;;;22.28;51.76;101063.16;5045948;28;46461;-62
2022/04/11 01:53:31;;;;;;;;;1.00;1.00;;;;;22.29;51.99;101059.53;5038322;28;45423;-63
2022/04/11 01:55:57;;;;;;;;;2.00;2.00;;;;;22.30;52.19;101061.28;5052180;28;45279;-62
2022/04/11 01:58:22;;;;;;;;;1.00;1.00;;;;;22.30;52.22;101061.28;5048828;28;45636;-62
2022/04/11 02:00:48;;;;;;;;;0.67;0.67;;;;;22.31;52.42;101059.47;5055851;28;45616;-62
2022/04/11 02:03:13;;;;;;;;;2.00;0.00;;;;;22.29;51.96;101059.53;5053584;28;45407;-62
2022/04/11 02:05:40;;;;;;;;;1.00;1.00;;;;;22.28;52.50;101052.41;5055104;28;45614;-62
2022/04/11 02:08:07;;;;;;;;;2.00;1.00;;;;;22.27;52.23;101050.63;5058283;28;45580;-62
2022/04/11 02:10:35;;;;;;;;;3.00;2.00;;;;;22.28;52.49;101052.41;5040938;28;45850;-62
2022/04/11 02:13:00;;;;;;;;;2.00;0.33;;;;;22.28;52.60;101048.81;5019376;28;45368;-62
2022/04/11 02:15:26;;;;;;;;;2.00;1.00;;;;;22.27;52.33;101047.06;5035734;28;45364;-63
2022/04/11 02:17:51;;;;;;;;;1.33;1.00;;;;;22.27;52.29;101047.06;5049447;28;45492;-63
2022/04/11 02:20:17;;;;;;;;;0.00;0.00;;;;;22.23;52.03;101035.53;5037208;28;47523;-63
2022/04/11 02:22:45;;;;;;;;;1.67;1.00;;;;;22.25;52.46;101036.34;5052466;28;45316;-63
2022/04/11 02:25:11;;;;;;;;;5.00;2.00;;;;;22.23;52.56;101041.78;5057093;28;45386;-62
2022/04/11 02:27:37;;;;;;;;;2.00;1.00;;;;;22.21;52.44;101023.91;5057966;28;45201;-62
2022/04/11 02:30:04;;;;;;;;;2.00;0.00;;;;;22.25;52.39;101030.09;5039562;28;54761;-62
2022/04/11 02:32:30;;;;;;;;;1.00;1.00;;;;;22.23;52.35;101024.78;5030740;28;45395;-62
2022/04/11 02:34:55;;;;;;;;;1.00;1.00;;;;;22.22;52.30;101025.72;5042692;28;48130;-62
2022/04/11 02:37:21;;;;;;;;;3.00;1.00;;;;;22.21;52.16;101029.31;5056689;28;45615;-62
2022/04/11 02:39:46;;;;;;;;;0.33;0.33;;;;;22.22;52.33;101023.03;5038145;28;47488;-62
2022/04/11 02:42:26;;;;;;;;;0.00;0.00;;;;;22.19;52.38;101013.22;5063758;22;45372;-62
2022/04/11 02:44:51;;;;;;;;;1.00;1.00;;;;;22.21;52.54;101019.44;5069093;28;45295;-63
2022/04/11 02:47:17;;;;;;;;;1.00;1.00;;;;;22.20;52.44;101020.34;5075737;27;45498;-62
2022/04/11 02:49:43;;;;;;;;;0.67;0.67;;;;;22.18;52.81;101016.84;5076055;27;46655;-62
2022/04/11 02:52:09;;;;;;;;;1.00;1.00;;;;;22.20;52.36;101009.59;5063274;28;45341;-62
2022/04/11 02:54:36;;;;;;;;;0.00;0.00;;;;;22.21;52.26;101007.78;5059838;28;45888;-63
2022/04/11 02:57:01;;;;;;;;;1.00;1.00;;;;;22.21;52.33;101002.41;5076163;28;45370;-62
2022/04/11 02:59:27;;;;;;;;;1.00;1.00;;;;;22.20;52.31;100992.59;5069942;27;45872;-63
2022/04/11 03:01:52;;;;;;;;;1.00;1.00;;;;;22.21;52.59;100988.97;5057654;28;45145;-63
2022/04/11 03:04:18;;;;;;;;;1.00;1.00;;;;;22.24;51.93;100983.47;5055727;28;45836;-63
2022/04/11 03:06:43;;;;;;;;;1.00;1.00;;;;;22.25;52.41;100981.66;5057191;28;45489;-63
2022/04/11 03:09:09;;;;;;;;;1.00;1.00;;;;;22.25;52.25;100977.16;5065957;28;46517;-62
2022/04/11 03:11:34;;;;;;;;;2.00;1.00;;;;;22.26;52.08;100978.03;5057383;28;45215;-62
2022/04/11 03:14:00;;;;;;;;;0.00;0.00;;;;;22.25;52.42;100971.78;5056904;28;45430;-62
2022/04/11 03:16:25;;;;;;;;;1.33;0.33;;;;;22.26;51.98;100975.34;5055624;28;45496;-62
2022/04/11 03:18:50;;;;;;;;;2.67;1.00;;;;;22.27;52.54;100975.31;5070580;27;46708;-62
2022/04/11 03:21:16;;;;;;;;;1.00;1.00;;;;;22.27;52.73;100975.31;5056240;28;45307;-62
2022/04/11 03:23:41;;;;;;;;;2.00;0.33;;;;;22.28;52.01;100978.88;5063267;28;45941;-63
2022/04/11 03:26:07;;;;;;;;;1.00;1.00;;;;;22.27;52.34;100978.00;5057354;28;45427;-62
2022/04/11 03:28:32;;;;;;;;;1.00;1.00;;;;;22.28;52.50;100981.56;5068812;28;49060;-63
2022/04/11 03:30:59;;;;;;;;;1.00;1.00;;;;;22.26;52.57;100976.22;5071140;28;45412;-62
2022/04/11 03:33:24;;;;;;;;;1.33;1.00;;;;;22.25;52.69;100974.47;5057046;28;45426;-63
2022/04/11 03:35:50;;;;;;;;;0.33;0.00;;;;;22.28;52.36;100977.06;5074123;28;45443;-62
2022/04/11 03:38:15;;;;;;;;;0.67;0.67;;;;;22.24;52.17;100975.41;5070855;27;46686;-62
2022/04/11 03:40:41;;;;;;;;;1.33;1.00;;;;;22.28;52.08;100986.97;5061164;28;46706;-62
2022/04/11 03:43:06;;;;;;;;;0.33;0.33;;;;;22.26;52.33;100978.03;5057784;28;45297;-62
2022/04/11 03:45:31;;;;;;;;;2.00;1.00;;;;;22.25;52.14;100965.53;5056993;28;45538;-63
2022/04/11 03:47:57;;;;;;;;;1.00;1.00;;;;;22.27;52.04;100961.00;5074058;28;47440;-62
2022/04/11 03:50:22;;;;;;;;;1.00;1.00;;;;;22.25;52.25;100954.78;5071683;28;45364;-62
2022/04/11 03:52:48;;;;;;;;;1.00;1.00;;;;;22.26;52.25;100946.63;5077122;27;45255;-62
2022/04/11 03:55:13;;;;;;;;;2.00;1.00;;;;;22.26;52.38;100951.13;5068090;28;45203;-62
2022/04/11 03:57:38;;;;;;;;;1.00;1.00;;;;;22.25;52.40;100950.25;5056185;28;46796;-63
2022/04/11 04:00:04;;;;;;;;;1.00;1.00;;;;;22.24;52.10;100935.06;5068331;28;45199;-63
2022/04/11 04:02:30;;;;;;;;;1.00;1.00;;;;;22.25;52.34;100939.50;5075571;28;45334;-63
2022/04/11 04:04:55;;;;;;;;;1.00;0.67;;;;;22.26;52.10;100935.00;5076653;28;46750;-62
2022/04/11 04:07:21;;;;;;;;;1.00;1.00;;;;;22.25;52.10;100933.25;5076494;28;46412;-63
2022/04/11 04:09:46;;;;;;;;;1.00;1.00;;;;;22.23;52.48;100933.31;5065596;28;45954;-62
2022/04/11 04:12:11;;;;;;;;;1.00;1.00;;;;;22.23;52.50;100923.44;5056676;28;45556;-62
2022/04/11 04:14:37;;;;;;;;;1.00;1.00;;;;;22.27;52.05;100936.78;5077136;28;45321;-62
2022/04/11 04:17:03;;;;;;;;;2.00;1.00;;;;;22.25;52.10;100922.50;5076021;27;54628;-62
2022/04/11 04:19:28;;;;;;;;;2.00;1.00;;;;;22.23;52.18;100923.44;5076067;27;45369;-62
2022/04/11 04:21:53;;;;;;;;;1.00;1.00;;;;;22.23;52.12;100936.88;5059211;27;45379;-62
2022/04/11 04:24:22;;;;;;;;;0.67;0.67;;;;;22.24;52.67;100935.06;5056459;28;45353;-62
2022/04/11 04:26:48;;;;;;;;;1.00;1.00;;;;;22.23;52.48;100928.81;5056084;28;45682;-62
2022/04/11 04:29:16;;;;;;;;;1.00;1.00;;;;;22.24;52.04;100921.63;5057330;28;45224;-62
2022/04/11 04:31:42;;;;;;;;;1.00;1.00;;;;;22.24;52.05;100918.94;5067021;28;45229;-63
2022/04/11 04:34:07;;;;;;;;;1.00;1.00;;;;;22.22;52.50;100913.59;5059853;28;45513;-62
2022/04/11 04:36:33;;;;;;;;;1.00;1.00;;;;;22.22;52.53;100910.91;5058080;28;45706;-63
2022/04/11 04:38:58;;;;;;;;;2.00;2.00;;;;;22.22;52.36;100901.97;5058709;28;53588;-62
2022/04/11 04:41:23;;;;;;;;;1.00;1.00;;;;;22.22;52.61;100897.47;5064692;28;45588;-62
2022/04/11 04:43:49;;;;;;;;;1.67;1.67;;;;;22.21;52.38;100901.09;5059748;28;45500;-62
2022/04/11 04:46:14;;;;;;;;;1.00;1.00;;;;;22.21;52.84;100905.56;5059044;28;50086;-62
2022/04/11 04:48:40;;;;;;;;;4.33;1.00;;;;;22.22;52.69;100918.13;5059396;28;45501;-63
2022/04/11 04:51:08;;;;;;;;;1.00;1.00;;;;;22.20;52.59;100915.44;5077511;28;45299;-63
2022/04/11 04:53:33;;;;;;;;;2.00;2.00;;;;;22.22;52.33;100923.50;5079948;28;45240;-62
2022/04/11 04:55:58;;;;;;;;;1.00;1.00;;;;;22.21;52.33;100922.63;5064947;27;46368;-62
2022/04/11 04:58:24;;;;;;;;;3.00;2.00;;;;;22.19;52.36;100927.16;5059244;28;50752;-62
2022/04/11 05:00:49;;;;;;;;;1.33;1.33;;;;;22.21;52.78;100936.06;5076118;28;45274;-62
2022/04/11 05:03:15;;;;;;;;;2.00;2.00;;;;;22.20;52.78;100936.09;5068661;28;45176;-62
2022/04/11 05:05:40;;;;;;;;;2.00;2.00;;;;;22.17;52.58;100933.53;5058959;28;46830;-62
2022/04/11 05:08:06;;;;;;;;;6.00;1.33;;;;;22.20;52.64;100938.78;5059094;28;45196;-62
2022/04/11 05:10:31;;;;;;;;;1.00;1.00;;;;;22.19;52.94;100923.59;5059482;28;45187;-62
2022/04/11 05:12:57;;;;;;;;;1.33;1.33;;;;;22.15;52.38;100920.13;5059491;28;45359;-62
2022/04/11 05:15:23;;;;;;;;;3.00;2.00;;;;;22.17;52.72;100917.41;5071717;28;46550;-63
2022/04/11 05:17:49;;;;;;;;;2.00;2.00;;;;;22.17;52.55;100920.09;5069960;28;45354;-63
2022/04/11 05:20:14;;;;;;;;;2.00;2.00;;;;;22.15;52.45;100917.44;5070871;27;46940;-63
2022/04/11 05:22:40;;;;;;;;;3.67;2.00;;;;;22.15;52.33;100924.63;5077296;28;45503;-63
2022/04/11 05:25:06;;;;;;;;;2.00;2.00;;;;;22.16;52.91;100921.91;5075180;27;45528;-63
2022/04/11 05:27:31;;;;;;;;;2.00;2.00;;;;;22.14;52.82;100915.69;5069258;27;45351;-63
2022/04/11 05:29:57;;;;;;;;;1.33;1.33;;;;;22.13;52.76;100911.25;5069972;28;45559;-63
2022/04/11 05:32:22;;;;;;;;;0.67;0.67;;;;;22.13;52.33;100911.25;5071197;28;45569;-65
2022/04/11 05:34:47;;;;;;;;;2.00;2.00;;;;;22.14;52.79;100917.50;5071872;28;51478;-64
2022/04/11 05:37:13;;;;;;;;;2.67;2.00;;;;;22.14;52.68;100910.31;5078659;27;45521;-63
2022/04/11 05:39:39;;;;;;;;;2.00;2.00;;;;;22.13;53.00;100913.94;5077872;27;45426;-64
2022/04/11 05:42:06;;;;;;;;;3.00;3.00;;;;;22.09;49.95;100903.28;5069309;28;45517;-63
2022/04/11 05:44:31;;;;;;;;;5.00;5.00;;;;;21.79;42.81;100906.13;5067219;28;47538;-63
2022/04/11 05:46:57;;;;;;;;;7.00;5.00;;;;;21.21;40.49;100912.53;5062485;28;45601;-63
2022/04/11 05:49:23;;;;;;;;;6.00;6.00;;;;;20.58;39.20;100917.97;5071365;28;47119;-61
2022/04/11 05:51:48;;;;;;;;;5.00;5.00;;;;;19.94;40.24;100924.19;5076449;27;45385;-61
2022/04/11 05:54:14;;;;;;;;;3.00;3.00;;;;;19.52;43.75;100929.69;5072454;27;47370;-61
2022/04/11 05:56:39;;;;;;;;;3.00;3.00;;;;;19.38;45.45;100928.19;5078047;28;45495;-62
2022/04/11 05:59:05;;;;;;;;;4.00;3.00;;;;;19.45;47.42;100928.97;5070997;28;45470;-62
2022/04/11 06:01:31;;;;;;;;;4.00;2.67;;;;;19.53;47.96;100921.59;5067679;28;45675;-62
2022/04/11 06:03:56;;;;;;;;;8.00;3.67;;;;;19.67;48.62;100923.09;5076140;27;45872;-62
2022/04/11 06:06:22;;;;;;;;;2.67;2.67;;;;;19.78;48.72;100929.06;5073446;27;45438;-63
2022/04/11 06:08:47;;;;;;;;;2.00;2.00;;;;;19.93;49.74;100928.69;5075486;28;47833;-61
2022/04/11 06:11:13;;;;;;;;;4.67;3.00;;;;;20.02;50.08;100912.34;5074710;27;45487;-62
2022/04/11 06:13:42;;;;;;;;;4.67;4.00;;;;;20.18;49.98;100928.88;5075786;28;46816;-62
2022/04/11 06:16:08;;;;;;;;;5.00;3.33;;;;;20.31;50.23;100927.66;5063454;27;45549;-64
2022/04/11 06:18:33;;;;;;;;;3.00;3.00;;;;;20.40;50.64;100915.81;5067436;28;45715;-63
2022/04/11 06:20:58;;;;;;;;;2.33;2.33;;;;;20.51;50.77;100919.09;5071902;28;45498;-64
2022/04/11 06:23:24;;;;;;;;;3.00;3.00;;;;;20.62;51.00;100924.13;5067990;27;45753;-64
2022/04/11 06:25:49;;;;;;;;;5.00;3.00;;;;;20.72;50.98;100922.94;5072428;28;45314;-64
2022/04/11 06:28:15;;;;;;;;;3.67;2.00;;;;;20.81;50.49;100919.97;5066200;28;45881;-63
2022/04/11 06:30:40;;;;;;;;;4.67;2.67;;;;;20.89;51.01;100917.94;5069313;28;45433;-64
2022/04/11 06:33:06;;;;;;;;;4.33;3.00;;;;;20.98;50.97;100915.91;5063728;28;45588;-65
2022/04/11 06:35:31;;;;;;;;;2.33;2.33;;;;;21.06;50.62;100900.44;5068645;28;45511;-64
2022/04/11 06:37:56;;;;;;;;;6.00;4.33;;;;;21.11;50.72;100896.69;5064505;28;45782;-64
2022/04/11 06:40:22;;;;;;;;;4.00;2.00;;;;;21.17;50.49;100896.50;5063778;28;46398;-64
2022/04/11 06:42:47;;;;;;;;;3.67;3.33;;;;;21.25;50.70;100898.03;5065047;27;51592;-62
2022/04/11 06:45:14;;;;;;;;;5.00;3.33;;;;;21.30;50.73;100897.00;5070311;28;45592;-63
2022/04/11 06:47:40;;;;;;;;;3.33;3.33;;;;;21.34;51.30;100895.97;5069993;27;45524;-62
2022/04/11 06:50:06;;;;;;;;;5.00;4.00;;;;;21.38;51.35;100883.34;5061950;28;45836;-63
2022/04/11 06:52:31;;;;;;;;;4.00;3.00;;;;;21.40;50.90;100882.34;5069250;28;46470;-62
2022/04/11 06:54:57;;;;;;;;;4.00;4.00;;;;;21.48;51.56;100883.91;5072274;28;46759;-62
2022/04/11 06:57:24;;;;;;;;;2.67;2.67;;;;;21.52;51.05;100872.09;5073270;27;46072;-64
2022/04/11 06:59:49;;;;;;;;;2.67;2.33;;;;;21.55;50.99;100878.28;5071666;28;45423;-63
2022/04/11 07:02:15;;;;;;;;;3.00;3.00;;;;;21.56;51.03;100877.34;5067838;28;45534;-63
2022/04/11 07:04:40;;;;;;;;;3.67;3.33;;;;;21.61;51.48;100879.88;5072738;27;45446;-64
2022/04/11 07:07:06;;;;;;;;;3.00;3.00;;;;;21.65;51.06;100884.22;5064326;28;45484;-64
2022/04/11 07:09:31;;;;;;;;;4.00;3.33;;;;;21.66;50.80;100873.41;5066621;28;45500;-63
2022/04/11 07:11:57;;;;;;;;;6.00;4.00;;;;;21.70;51.70;100871.50;5070388;27;45897;-63
2022/04/11 07:14:22;;;;;;;;;3.67;3.67;;;;;21.68;51.14;100852.75;5071272;27;45843;-63
2022/04/11 07:16:49;;;;;;;;;3.67;3.00;;;;;21.73;51.05;100852.56;5069755;28;45592;-64
2022/04/11 07:19:15;;;;;;;;;3.67;3.00;;;;;21.74;51.46;100842.72;5067962;28;45504;-63
2022/04/11 07:21:40;;;;;;;;;3.00;3.00;;;;;21.77;51.18;100851.53;5073448;27;47299;-64
2022/04/11 07:24:06;;;;;;;;;3.33;2.00;;;;;21.80;51.08;100845.19;5066402;27;45405;-64
2022/04/11 07:26:31;;;;;;;;;3.33;3.33;;;;;21.78;51.11;100831.78;5065669;28;45533;-65
2022/04/11 07:28:57;;;;;;;;;3.00;3.00;;;;;21.83;50.97;100842.38;5067015;27;47600;-64
2022/04/11 07:31:22;;;;;;;;;5.33;4.33;;;;;21.84;51.36;100850.41;5071590;28;45715;-63
2022/04/11 07:33:49;;;;;;;;;5.00;4.00;;;;;21.85;51.40;100849.47;5070036;27;50228;-63
2022/04/11 07:36:14;;;;;;;;;3.00;2.67;;;;;21.85;51.39;100844.09;5067366;27;45648;-64
2022/04/11 07:38:40;;;;;;;;;7.67;3.67;;;;;21.88;50.96;100840.41;5069962;27;46882;-64
2022/04/11 07:41:05;;;;;;;;;3.00;3.00;;;;;21.87;51.68;100836.84;5072968;28;46638;-64
2022/04/11 07:43:30;;;;;;;;;3.00;3.00;;;;;21.88;51.38;100837.72;5070204;28;45650;-63
2022/04/11 07:45:56;;;;;;;;;2.67;2.00;;;;;21.90;51.15;100842.13;5068856;28;45496;-64
2022/04/11 07:48:21;;;;;;;;;5.33;3.33;;;;;21.92;51.49;100839.38;5071074;27;50926;-63
2022/04/11 07:50:47;;;;;;;;;6.67;4.33;;;;;21.94;51.39;100838.41;5070714;28;47250;-63
2022/04/11 07:53:12;;;;;;;;;4.00;4.00;;;;;21.92;51.69;100826.81;5066794;28;46364;-63
2022/04/11 07:55:37;;;;;;;;;3.67;3.33;;;;;21.92;51.32;100821.41;5066491;28;45794;-65
2022/04/11 07:58:03;;;;;;;;;5.00;4.00;;;;;21.94;51.84;100822.28;5070898;27;45168;-63
2022/04/11 08:00:28;;;;;;;;;5.00;5.00;;;;;21.94;52.48;100816.88;5069003;28;45942;-63
2022/04/11 08:02:56;;;;;;;;;10.33;8.00;;;;;21.97;52.15;100818.56;5072021;27;45394;-64
2022/04/11 08:05:22;;;;;;;;;10.33;10.33;;;;;21.96;52.72;100812.31;5073903;27;45467;-63
2022/04/11 08:07:49;;;;;;;;;21.00;18.67;;;;;22.00;52.71;100806.81;5074576;27;45502;-64
2022/04/11 08:10:15;;;;;;;;;22.33;19.33;;;;;22.01;53.34;100801.41;5073070;27;47093;-64
2022/04/11 08:12:41;;;;;;;;;27.67;22.67;;;;;22.05;53.82;100807.53;5075684;28;45563;-65
2022/04/11 08:15:07;;;;;;;;;19.67;17.33;;;;;22.07;53.89;100806.56;5073061;27;45428;-65
2022/04/11 08:17:33;;;;;;;;;23.67;19.67;;;;;22.09;54.39;100810.03;5071860;28;45371;-64
2022/04/11 08:19:58;;;;;;;;;18.00;16.00;;;;;22.11;54.55;100805.53;5072742;28;47585;-65
2022/04/11 08:22:23;;;;;;;;;17.33;15.67;;;;;22.16;54.57;100816.13;5072398;27;45353;-65
2022/04/11 08:24:49;;;;;;;;;15.00;13.67;;;;;22.18;54.48;100815.13;5074593;27;45767;-64
2022/04/11 08:27:15;;;;;;;;;15.67;14.00;;;;;22.20;55.01;100813.25;5077197;28;45407;-64
2022/04/11 08:29:41;;;;;;;;;13.67;11.00;;;;;22.22;55.31;100811.41;5077059;28;47485;-64
2022/04/11 08:32:06;;;;;;;;;12.33;12.33;;;;;22.24;55.17;100814.03;5067848;27;45525;-65
2022/04/11 08:34:32;;;;;;;;;14.00;12.00;;;;;22.25;55.67;100799.63;5069093;28;45408;-65
2022/04/11 08:36:57;;;;;;;;;18.33;14.00;;;;;22.27;55.52;100803.16;5070800;28;45703;-66
2022/04/11 08:39:22;;;;;;;;;14.00;14.00;;;;;22.29;55.64;100797.72;5074268;28;46339;-64
2022/04/11 08:41:48;;;;;;;;;15.67;12.67;;;;;22.29;55.65;100792.34;5068091;28;45197;-64
2022/04/11 08:44:13;;;;;;;;;15.33;13.00;;;;;22.29;55.76;100798.59;5073225;27;45377;-64
2022/04/11 08:46:39;;;;;;;;;15.00;11.67;;;;;22.30;56.01;100796.78;5072328;28;45493;-65
2022/04/11 08:49:08;;;;;;;;;9.67;9.67;;;;;22.28;56.05;100778.00;5072045;28;45817;-66
2022/04/11 08:51:35;;;;;;;;;11.00;11.00;;;;;22.30;56.22;100775.25;5066868;28;45620;-65
2022/04/11 08:54:02;;;;;;;;;9.33;9.33;;;;;22.28;56.33;100764.56;5067289;28;45307;-64
2022/04/11 08:56:28;;;;;;;;;14.67;11.00;;;;;22.31;56.64;100774.31;5067380;28;45534;-64
2022/04/11 08:58:54;;;;;;;;;12.67;12.00;;;;;22.29;56.37;100766.31;5071690;28;47978;-64
2022/04/11 09:01:20;;;;;;;;;12.00;9.67;;;;;22.28;56.45;100755.59;5073937;27;45308;-64
2022/04/11 09:03:46;;;;;;;;;11.00;10.00;;;;;22.28;56.17;100755.59;5069857;28;45472;-65
2022/04/11 09:06:14;;;;;;;;;10.00;10.00;;;;;22.28;56.46;100763.69;5075576;27;45219;-65
2022/04/11 09:08:42;;;;;;;;;12.33;8.67;;;;;22.28;56.80;100753.78;5071378;27;45984;-66
2022/04/11 09:11:08;;;;;;;;;10.00;10.00;;;;;22.29;56.85;100754.66;5067762;28;45514;-66
2022/04/11 09:13:50;;;;;;;;;11.00;7.33;;;;;22.28;56.88;100759.19;5072902;27;45352;-66
2022/04/11 09:16:16;;;;;;;;;10.67;9.00;;;;;22.27;56.94;100757.44;5070379;28;45420;-65
2022/04/11 09:18:52;;;;;;;;;10.00;8.67;;;;;22.29;56.97;100751.97;5068831;27;45604;-66
2022/04/11 09:21:19;;;;;;;;;11.00;8.67;;;;;22.25;56.94;100756.59;5073109;28;45406;-65
2022/04/11 09:23:45;;;;;;;;;9.67;9.67;;;;;22.22;56.93;100749.53;5065218;28;45631;-64
2022/04/11 09:26:23;;;;;;;;;12.00;9.00;;;;;22.26;56.92;100754.78;5083528;27;45623;-65
2022/04/11 09:29:03;;;;;;;;;10.00;9.00;;;;;22.24;57.25;100741.38;5065861;28;47723;-66
2022/04/11 09:31:29;;;;;;;;;9.33;6.00;;;;;22.26;57.33;100747.56;5072661;28;45454;-64
2022/04/11 09:33:54;;;;;;;;;8.00;8.00;;;;;22.24;57.25;100736.00;5065914;27;45582;-68
2022/04/11 09:36:20;;;;;;;;;9.00;6.33;;;;;22.24;57.23;100727.94;5073435;28;45524;-65
2022/04/11 09:38:59;;;;;;;;;8.67;6.00;;;;;22.25;56.97;100736.88;5071617;28;46776;-65
2022/04/11 09:41:34;;;;;;;;;10.00;8.00;;;;;22.25;57.10;100734.19;5029113;28;1208771;-65
2022/04/11 09:44:24;;;;;;;;;9.67;7.00;;;;;22.25;57.39;100728.81;5074974;28;45248;-67
2022/04/11 09:46:50;;;;;;;;;9.67;7.33;;;;;22.22;57.37;100725.31;5057600;28;45534;-64
2022/04/11 09:49:17;;;;;;;;;11.33;7.33;;;;;22.23;57.12;100720.81;5071781;28;45797;-68
2022/04/11 09:52:01;;;;;;;;;11.33;8.00;;;;;22.22;56.98;100716.38;5071321;28;45328;-65
2022/04/11 09:54:27;;;;;;;;;8.00;6.67;;;;;22.20;57.12;100715.53;5071743;27;45533;-66
2022/04/11 09:56:54;;;;;;;;;5.33;5.33;;;;;22.21;57.11;100717.28;5070343;28;45462;-69
2022/04/11 09:59:21;;;;;;;;;7.67;6.33;;;;;22.19;57.40;100713.78;5075357;28;46710;-68
2022/04/11 10:01:47;;;;;;;;;10.67;8.00;;;;;22.19;57.56;100721.88;5070460;28;45302;-64
2022/04/11 10:04:13;;;;;;;;;8.33;7.00;;;;;22.23;57.90;100715.44;5066483;28;46358;-65
2022/04/11 10:06:38;;;;;;;;;11.00;7.00;;;;;22.22;57.92;100705.63;5068462;27;45588;-64
2022/04/11 10:09:04;;;;;;;;;12.33;7.67;;;;;22.22;57.93;100697.56;5069442;28;46962;-67
2022/04/11 10:11:30;;;;;;;;;8.00;6.33;;;;;22.25;58.10;100710.00;5066681;28;46034;-65
2022/04/11 10:13:56;;;;;;;;;8.33;6.00;;;;;22.24;57.95;100703.75;5072819;27;45385;-65
2022/04/11 10:16:23;;;;;;;;;12.00;7.00;;;;;22.25;58.03;100705.47;5072505;28;45379;-64
2022/04/11 10:18:48;;;;;;;;;8.67;6.00;;;;;22.25;58.25;100710.00;5071906;27;46953;-63
2022/04/11 10:21:14;;;;;;;;;10.00;6.00;;;;;22.28;58.24;100712.56;5073133;28;45358;-63
2022/04/11 10:24:00;;;;;;;;;8.67;6.00;;;;;22.28;58.70;100701.81;5073494;27;45520;-64
2022/04/11 10:26:26;;;;;;;;;7.67;7.00;;;;;22.29;58.84;100704.44;5072552;28;45458;-63
2022/04/11 10:28:52;;;;;;;;;7.00;6.00;;;;;22.30;58.53;100692.72;5073695;28;47480;-62
2022/04/11 10:31:17;;;;;;;;;4.67;4.00;;;;;22.30;58.93;100694.53;5076120;28;45651;-62
2022/04/11 10:33:44;;;;;;;;;7.00;6.00;;;;;22.31;59.40;100680.16;5068975;27;45430;-61
2022/04/11 10:36:35;;;;;;;;;8.33;7.00;;;;;22.32;58.70;100682.81;5079947;27;45581;-62
2022/04/11 10:39:15;;;;;;;;;6.00;5.00;;;;;22.33;59.27;100675.59;5074004;27;46931;-63
2022/04/11 10:41:56;;;;;;;;;9.67;5.67;;;;;22.34;59.36;100675.53;5069435;28;45443;-62
2022/04/11 10:44:41;;;;;;;;;5.00;5.00;;;;;22.35;59.59;100677.28;5069685;27;45599;-62
2022/04/11 10:47:12;;;;;;;;;9.00;4.67;;;;;22.35;59.66;100666.53;5068203;28;45595;-62
2022/04/11 10:49:50;;;;;;;;;6.67;5.33;;;;;22.36;60.21;100670.97;5066298;28;46901;-62
2022/04/11 10:52:33;;;;;;;;;5.00;5.00;;;;;22.36;59.67;100654.81;5069911;28;45430;-62
2022/04/11 10:55:16;;;;;;;;;5.67;5.00;;;;;22.37;60.08;100663.75;5073761;27;45481;-62
2022/04/11 10:57:41;;;;;;;;;5.00;5.00;;;;;22.37;60.02;100656.59;5076171;27;45591;-63
2022/04/11 11:00:20;;;;;;;;;7.00;6.00;;;;;22.37;60.08;100650.31;5076483;27;45686;-62
2022/04/11 11:02:57;;;;;;;;;4.67;4.33;;;;;22.40;60.19;100634.06;5075906;27;45183;-61
2022/04/11 11:05:29;;;;;;;;;6.67;5.33;;;;;22.40;60.09;100625.97;5074597;27;45373;-64
2022/04/11 11:08:09;;;;;;;;;4.00;4.00;;;;;22.40;60.10;100618.78;5070399;28;45429;-61
2022/04/11 11:10:45;;;;;;;;;7.00;5.33;;;;;22.41;60.21;100636.66;5076565;27;46502;-63
2022/04/11 11:13:41;;;;;;;;;5.00;4.00;;;;;22.41;59.88;100639.38;5071839;27;45294;-62
2022/04/11 11:16:07;;;;;;;;;8.00;5.67;;;;;22.41;59.90;100639.38;5077166;28;45525;-62
2022/04/11 11:18:48;;;;;;;;;6.00;4.00;;;;;22.41;60.05;100633.97;5076443;28;45287;-63
2022/04/11 11:21:15;;;;;;;;;8.67;6.00;;;;;22.40;60.25;100637.63;5071879;28;46025;-62
2022/04/11 11:23:41;;;;;;;;;7.00;5.67;;;;;22.41;60.35;100650.13;5076488;27;45306;-63